map of CGF home
CGF - Airport
Location
City:  Cleveland, Ohio, United States
Name:Cuyahoga County Airport
ICAO:KCGF
IATA:CGF
FAA LID:CGF

Details
Type:Airport (Airfield)
Use:Public/Civil
Latitude:4133'54"N (41.565111)
Longitude:8129'11"W (-81.486360)
Datum:WGS 1984
Elevation:878 ft (268 m)
Variation:8.49W (WMM2015 magnetic declination)
-0.02 annual change
Runways:1
Longest:5102 × 100 ft (1555 × 30.5 m), paved

Time
Time Zone:UTC-5 (DST-4)
Local Time:

Weather
METAR:KCGF 090345Z 25010G18KT 5SM -SN OVC020 M04/M06 A3021

Related Locations
Nearby:
Farthest:MQZ: 11392 mi / 18334 km
Margaret River [Margaret River Airport], WA, AU

Find:

   beyond  
but within

Other Information
Maps:
NOTAMs:
Links:
Sources:

  
flag of United States
flag of Ohio
flag of Cleveland
  

Airport Diagram

Airport diagram for CGF

Airport diagram PDF

Sectional Chart

Flight Planning
at skyvector.com

Satellite Image

Google Maps Satellite view

 

Copyright © 2004-2016 Karl L. Swartz. All rights reserved.
The Great Circle Mapper name and logo are trademarks of the Great Circle Mapper.
All other trademarks mentioned herein belong to their respective owners.
Please see credits for attibutions and further copyright information.

  Follow gcmap on Facebook Follow gcmap on Twitter Follow gcmap on Google+ GCmap on LinkedIn

hCard Microformat

Geo Microformat